DAL3067 KPNS-KATL
Flight info
| Callsign | DAL3067 |
|---|---|
| Flight time | N/A |
| Altitude | 33000 |
| Route | CEW ENNTT HOBTT3 |
| Aircraft | A321/M-SDE3FGHIRWY/LB1 |
Departure
| Time | 2026-04-29 14:09 |
|---|---|
| Airport | Pensacola International Airport (KPNS) |
Arrival
| Time | N/A |
|---|---|
| Airport | Hartsfield Jackson Atlanta International Airport (KATL) |
| Time | Latitude | Longitude | Altitude | Speed | Heading |
|---|---|---|---|---|---|
| 2026-04-29 13:31 | 30.47602 | -87.19272 | 131 ft | 0 kts | 233° |
| 2026-04-29 13:36 | 30.47603 | -87.19272 | 131 ft | 0 kts | 233° |
| 2026-04-29 13:42 | 30.47603 | -87.19271 | 131 ft | 0 kts | 233° |
| 2026-04-29 14:00 | 30.47609 | -87.19262 | 126 ft | 4 kts | 222° |
| 2026-04-29 14:00 | 30.47628 | -87.19251 | 128 ft | 4 kts | 162° |
| 2026-04-29 14:01 | 30.47643 | -87.19265 | 128 ft | 3 kts | 97° |
| 2026-04-29 14:01 | 30.47643 | -87.19268 | 127 ft | 1 kts | 95° |
| 2026-04-29 14:04 | 30.47640 | -87.19247 | 127 ft | 7 kts | 104° |
| 2026-04-29 14:05 | 30.47631 | -87.19191 | 130 ft | 7 kts | 86° |
| 2026-04-29 14:05 | 30.47657 | -87.19155 | 128 ft | 5 kts | 30° |
| 2026-04-29 14:05 | 30.47686 | -87.19132 | 129 ft | 5 kts | 48° |
| 2026-04-29 14:05 | 30.47722 | -87.19086 | 127 ft | 8 kts | 22° |
| 2026-04-29 14:06 | 30.47774 | -87.19087 | 128 ft | 7 kts | 348° |
| 2026-04-29 14:06 | 30.47825 | -87.19101 | 130 ft | 11 kts | 347° |
| 2026-04-29 14:06 | 30.47954 | -87.19135 | 130 ft | 26 kts | 347° |
| 2026-04-29 14:06 | 30.48136 | -87.19187 | 127 ft | 21 kts | 347° |
| 2026-04-29 14:07 | 30.48244 | -87.19191 | 131 ft | 12 kts | 34° |
| 2026-04-29 14:07 | 30.48273 | -87.19106 | 132 ft | 11 kts | 77° |
| 2026-04-29 14:07 | 30.48257 | -87.19056 | 132 ft | 0 kts | 173° |
| 2026-04-29 14:07 | 30.48256 | -87.19055 | 132 ft | 1 kts | 167° |
| 2026-04-29 14:08 | 30.48255 | -87.19054 | 132 ft | 1 kts | 167° |
| 2026-04-29 14:08 | 30.48142 | -87.19025 | 132 ft | 50 kts | 167° |
| 2026-04-29 14:08 | 30.47556 | -87.18870 | 127 ft | 121 kts | 167° |
| 2026-04-29 14:08 | 30.46552 | -87.18603 | 203 ft | 167 kts | 167° |
| 2026-04-29 14:09 | 30.45451 | -87.18304 | 1003 ft | 158 kts | 170° |
| 2026-04-29 14:09 | 30.44371 | -87.18004 | 1683 ft | 160 kts | 169° |
| 2026-04-29 14:09 | 30.43404 | -87.17263 | 2030 ft | 185 kts | 122° |
| 2026-04-29 14:09 | 30.43206 | -87.15729 | 2286 ft | 209 kts | 75° |
| 2026-04-29 14:10 | 30.44038 | -87.14285 | 2452 ft | 229 kts | 41° |
| 2026-04-29 14:10 | 30.45287 | -87.12972 | 2673 ft | 255 kts | 40° |
| 2026-04-29 14:10 | 30.46646 | -87.11530 | 3175 ft | 271 kts | 41° |
| 2026-04-29 14:10 | 30.48009 | -87.10028 | 3943 ft | 276 kts | 42° |
| 2026-04-29 14:11 | 30.49387 | -87.08452 | 4736 ft | 281 kts | 43° |
| 2026-04-29 14:11 | 30.50765 | -87.06827 | 5595 ft | 283 kts | 42° |
| 2026-04-29 14:11 | 30.52148 | -87.05164 | 6532 ft | 287 kts | 43° |
| 2026-04-29 14:11 | 30.53541 | -87.03473 | 7353 ft | 291 kts | 43° |
| 2026-04-29 14:12 | 30.54946 | -87.01758 | 8171 ft | 295 kts | 43° |
| 2026-04-29 14:12 | 30.56365 | -87.00027 | 8933 ft | 297 kts | 43° |
| 2026-04-29 14:12 | 30.57797 | -86.98283 | 9661 ft | 300 kts | 43° |
| 2026-04-29 14:12 | 30.59251 | -86.96515 | 10287 ft | 308 kts | 43° |
| 2026-04-29 14:13 | 30.60768 | -86.94673 | 10435 ft | 331 kts | 43° |
| 2026-04-29 14:13 | 30.62410 | -86.92676 | 10648 ft | 351 kts | 43° |
| 2026-04-29 14:13 | 30.64115 | -86.90597 | 11163 ft | 358 kts | 43° |
| 2026-04-29 14:13 | 30.65848 | -86.88479 | 11771 ft | 363 kts | 43° |
| 2026-04-29 14:14 | 30.67602 | -86.86333 | 12389 ft | 368 kts | 43° |
| 2026-04-29 14:14 | 30.69380 | -86.84150 | 13009 ft | 373 kts | 43° |
| 2026-04-29 14:14 | 30.71178 | -86.81945 | 13621 ft | 378 kts | 43° |
| 2026-04-29 14:14 | 30.72979 | -86.79740 | 14187 ft | 383 kts | 43° |
| 2026-04-29 14:15 | 30.74822 | -86.77484 | 14778 ft | 386 kts | 43° |
| 2026-04-29 14:15 | 30.76686 | -86.75195 | 15416 ft | 389 kts | 42° |
| 2026-04-29 14:15 | 30.78552 | -86.72901 | 16050 ft | 391 kts | 42° |
| 2026-04-29 14:15 | 30.80430 | -86.70606 | 16678 ft | 393 kts | 40° |
| 2026-04-29 14:16 | 30.82522 | -86.68569 | 17284 ft | 390 kts | 29° |
| 2026-04-29 14:16 | 30.84840 | -86.67043 | 17882 ft | 385 kts | 18° |
| 2026-04-29 14:16 | 30.87345 | -86.65946 | 18491 ft | 384 kts | 13° |
| 2026-04-29 14:16 | 30.89876 | -86.64909 | 19002 ft | 387 kts | 14° |
| 2026-04-29 14:17 | 30.92425 | -86.63858 | 19492 ft | 390 kts | 14° |
| 2026-04-29 14:17 | 30.94996 | -86.62789 | 19968 ft | 393 kts | 14° |
| 2026-04-29 14:17 | 30.97580 | -86.61710 | 20437 ft | 396 kts | 14° |
| 2026-04-29 14:17 | 31.00184 | -86.60619 | 20906 ft | 399 kts | 14° |
| 2026-04-29 14:18 | 31.02814 | -86.59521 | 21371 ft | 402 kts | 14° |
| 2026-04-29 14:18 | 31.04562 | -86.58792 | 21657 ft | 405 kts | 14° |
| 2026-04-29 14:18 | 31.08098 | -86.57317 | 22271 ft | 409 kts | 14° |
| 2026-04-29 14:18 | 31.09913 | -86.56559 | 22579 ft | 411 kts | 14° |
| 2026-04-29 14:19 | 31.13504 | -86.55059 | 23189 ft | 415 kts | 14° |
| 2026-04-29 14:19 | 31.15316 | -86.54300 | 23482 ft | 418 kts | 15° |
| 2026-04-29 14:19 | 31.18061 | -86.53148 | 23877 ft | 421 kts | 15° |
| 2026-04-29 14:19 | 31.20823 | -86.51988 | 24282 ft | 423 kts | 14° |
| 2026-04-29 14:20 | 31.23602 | -86.50822 | 24678 ft | 425 kts | 14° |
| 2026-04-29 14:20 | 31.26394 | -86.49649 | 25084 ft | 426 kts | 14° |
| 2026-04-29 14:20 | 31.29198 | -86.48473 | 25504 ft | 428 kts | 14° |
| 2026-04-29 14:20 | 31.32002 | -86.47295 | 25902 ft | 430 kts | 14° |
| 2026-04-29 14:21 | 31.34794 | -86.46126 | 26283 ft | 431 kts | 14° |
| 2026-04-29 14:21 | 31.37631 | -86.44938 | 26654 ft | 433 kts | 14° |
| 2026-04-29 14:21 | 31.40470 | -86.43746 | 27020 ft | 435 kts | 14° |
| 2026-04-29 14:21 | 31.43321 | -86.42546 | 27388 ft | 436 kts | 14° |
| 2026-04-29 14:22 | 31.46193 | -86.41335 | 27759 ft | 438 kts | 13° |
| 2026-04-29 14:22 | 31.49068 | -86.40123 | 28112 ft | 440 kts | 13° |
| 2026-04-29 14:22 | 31.51962 | -86.38905 | 28457 ft | 442 kts | 13° |
| 2026-04-29 14:22 | 31.54864 | -86.37685 | 28803 ft | 444 kts | 13° |
| 2026-04-29 14:23 | 31.57749 | -86.36469 | 29125 ft | 445 kts | 13° |
| 2026-04-29 14:23 | 31.60675 | -86.35233 | 29438 ft | 448 kts | 13° |
| 2026-04-29 14:23 | 31.63624 | -86.33986 | 29581 ft | 453 kts | 13° |
| 2026-04-29 14:23 | 31.66615 | -86.32721 | 29739 ft | 460 kts | 14° |
| 2026-04-29 14:24 | 31.69565 | -86.31126 | 29888 ft | 472 kts | 23° |
| 2026-04-29 14:24 | 31.72346 | -86.28990 | 30152 ft | 479 kts | 28° |
| 2026-04-29 14:24 | 31.75085 | -86.26755 | 30438 ft | 479 kts | 28° |
| 2026-04-29 14:24 | 31.77791 | -86.24557 | 30762 ft | 478 kts | 28° |
| 2026-04-29 14:25 | 31.80535 | -86.22338 | 31114 ft | 476 kts | 27° |
| 2026-04-29 14:25 | 31.83265 | -86.20135 | 31473 ft | 475 kts | 27° |
| 2026-04-29 14:25 | 31.85993 | -86.17932 | 31833 ft | 473 kts | 27° |
| 2026-04-29 14:25 | 31.88712 | -86.15733 | 32202 ft | 472 kts | 27° |
| 2026-04-29 14:26 | 31.91376 | -86.13573 | 32559 ft | 470 kts | 27° |
| 2026-04-29 14:26 | 31.94073 | -86.11388 | 32925 ft | 469 kts | 27° |
| 2026-04-29 14:26 | 31.96771 | -86.09204 | 33099 ft | 469 kts | 27° |
| 2026-04-29 14:26 | 31.99463 | -86.07023 | 33127 ft | 470 kts | 27° |
| 2026-04-29 14:27 | 32.04862 | -86.02634 | 33120 ft | 471 kts | 28° |
| 2026-04-29 14:28 | 32.12926 | -85.96064 | 33101 ft | 472 kts | 28° |
| 2026-04-29 14:28 | 32.18344 | -85.91645 | 33088 ft | 473 kts | 28° |
| 2026-04-29 14:29 | 32.23760 | -85.87220 | 33079 ft | 473 kts | 28° |
| 2026-04-29 14:29 | 32.29180 | -85.82778 | 33081 ft | 474 kts | 28° |
| 2026-04-29 14:30 | 32.34566 | -85.78363 | 33080 ft | 474 kts | 28° |
| 2026-04-29 14:30 | 32.39991 | -85.73911 | 33075 ft | 475 kts | 28° |
| 2026-04-29 14:31 | 32.45428 | -85.69440 | 33076 ft | 475 kts | 28° |
| 2026-04-29 14:31 | 32.50872 | -85.64954 | 33071 ft | 476 kts | 28° |
| 2026-04-29 14:32 | 32.56288 | -85.60492 | 33081 ft | 477 kts | 28° |
| 2026-04-29 14:32 | 32.61745 | -85.55988 | 33079 ft | 477 kts | 28° |
| 2026-04-29 14:33 | 32.67197 | -85.51475 | 33083 ft | 478 kts | 28° |
| 2026-04-29 14:33 | 32.72656 | -85.46953 | 33045 ft | 477 kts | 28° |
| 2026-04-29 14:33 | 32.75348 | -85.44713 | 32806 ft | 467 kts | 28° |
| 2026-04-29 14:34 | 32.77941 | -85.42549 | 32675 ft | 454 kts | 28° |
| 2026-04-29 14:34 | 32.80483 | -85.40422 | 32546 ft | 441 kts | 28° |
| 2026-04-29 14:34 | 32.82974 | -85.38344 | 32265 ft | 434 kts | 28° |
| 2026-04-29 14:34 | 32.85443 | -85.36296 | 31851 ft | 430 kts | 28° |
| 2026-04-29 14:35 | 32.87898 | -85.34268 | 31304 ft | 428 kts | 28° |
| 2026-04-29 14:35 | 32.90393 | -85.32214 | 30039 ft | 446 kts | 28° |